Time;durP1;ratioP1;P1;durP2;ratioP2;P2;SDS_P1;SDS_P2;PMS_P1;PMS_P2;Temp;Humidity;BMP_temperature;BMP_pressure;BME280_temperature;BME280_humidity;BME280_pressure;Samples;Min_cycle;Max_cycle;Signal;HPM_P1;HPM_P2
2021/05/19 00:00:49;;;;;;;1.30;1.20;;;11.40;99.90;;;;;;5026784;28;20199;-68
2021/05/19 00:03:15;;;;;;;1.07;1.07;;;11.40;99.90;;;;;;5041041;28;20446;-68
2021/05/19 00:05:40;;;;;;;1.53;1.43;;;11.40;99.90;;;;;;5015223;28;20569;-68
2021/05/19 00:08:10;;;;;;;1.30;1.20;;;11.40;99.90;;;;;;5041267;28;20513;-68
2021/05/19 00:10:36;;;;;;;1.50;1.40;;;11.40;99.90;;;;;;5045607;28;20248;-69
2021/05/19 00:13:03;;;;;;;1.57;1.27;;;11.40;99.90;;;;;;5041129;28;20423;-68
2021/05/19 00:15:28;;;;;;;1.40;1.13;;;11.40;99.90;;;;;;5053258;28;20457;-68
2021/05/19 00:17:54;;;;;;;1.17;1.13;;;11.40;99.90;;;;;;5047053;28;20443;-69
2021/05/19 00:20:21;;;;;;;1.13;1.03;;;11.40;99.90;;;;;;5027535;28;20246;-68
2021/05/19 00:22:47;;;;;;;1.30;1.00;;;11.30;99.90;;;;;;5053208;28;20812;-68
2021/05/19 00:25:15;;;;;;;1.07;1.07;;;11.30;99.90;;;;;;5054904;28;20527;-68
2021/05/19 00:27:41;;;;;;;1.20;1.10;;;11.30;99.90;;;;;;5035366;28;20434;-68
2021/05/19 00:30:08;;;;;;;1.23;1.13;;;11.40;99.90;;;;;;5057594;28;20855;-68
2021/05/19 00:32:33;;;;;;;1.13;1.07;;;11.40;99.90;;;;;;5027701;28;20196;-68
2021/05/19 00:34:59;;;;;;;1.40;1.30;;;11.30;99.90;;;;;;5016567;28;20434;-68
2021/05/19 00:37:25;;;;;;;1.77;1.67;;;11.30;99.90;;;;;;5041599;28;20257;-68
2021/05/19 00:39:50;;;;;;;1.03;1.00;;;11.20;99.90;;;;;;5040096;28;20200;-68
2021/05/19 00:42:16;;;;;;;1.30;1.20;;;11.10;99.90;;;;;;5008056;28;20184;-68
2021/05/19 00:44:42;;;;;;;1.27;1.17;;;11.10;99.90;;;;;;5039648;28;20634;-68
2021/05/19 00:47:08;;;;;;;1.30;1.20;;;11.10;99.90;;;;;;5028964;28;20187;-68
2021/05/19 00:49:34;;;;;;;1.50;1.40;;;11.00;99.90;;;;;;5036428;28;20434;-68
2021/05/19 00:52:01;;;;;;;1.30;1.20;;;11.00;99.90;;;;;;5044696;28;20454;-68
2021/05/19 00:54:27;;;;;;;1.10;1.10;;;11.00;99.90;;;;;;5061708;28;20454;-68
2021/05/19 00:56:53;;;;;;;1.10;1.10;;;11.00;99.90;;;;;;5082134;28;20465;-68
2021/05/19 00:59:20;;;;;;;1.17;1.17;;;11.00;99.90;;;;;;5032107;28;20787;-67
2021/05/19 01:01:54;;;;;;;1.47;1.37;;;11.00;99.90;;;;;;5029609;28;20436;-69
2021/05/19 01:04:22;;;;;;;1.00;1.00;;;11.00;99.90;;;;;;5046644;28;20478;-68
2021/05/19 01:07:14;;;;;;;1.40;1.30;;;11.00;99.90;;;;;;5048845;28;20472;-68
2021/05/19 01:09:39;;;;;;;1.30;1.20;;;11.00;99.90;;;;;;5031960;28;20538;-68
2021/05/19 01:12:16;;;;;;;1.53;1.00;;;11.00;99.90;;;;;;5048862;28;20478;-68
2021/05/19 01:14:43;;;;;;;1.27;1.20;;;10.90;99.90;;;;;;5030858;28;20275;-68
2021/05/19 01:17:09;;;;;;;1.43;1.33;;;10.90;99.90;;;;;;5084557;28;20445;-68
2021/05/19 01:19:45;;;;;;;1.20;1.20;;;10.90;99.90;;;;;;5063974;28;20433;-68
2021/05/19 01:22:11;;;;;;;1.23;1.17;;;10.80;99.90;;;;;;5047948;28;20516;-67
2021/05/19 01:24:40;;;;;;;1.23;1.13;;;10.70;99.90;;;;;;5045960;28;20442;-68
2021/05/19 01:27:08;;;;;;;1.30;1.20;;;10.70;99.90;;;;;;5045217;28;20461;-68
2021/05/19 01:29:34;;;;;;;1.17;1.07;;;10.60;99.90;;;;;;5047683;28;21016;-68
2021/05/19 01:32:00;;;;;;;1.50;1.40;;;10.60;99.90;;;;;;5028573;28;21027;-68
2021/05/19 01:34:26;;;;;;;1.77;1.20;;;10.60;99.90;;;;;;5046522;28;20434;-67
2021/05/19 01:36:53;;;;;;;1.50;1.40;;;10.60;99.90;;;;;;5052141;28;20438;-68
2021/05/19 01:39:18;;;;;;;2.10;1.90;;;10.60;99.90;;;;;;5064231;28;20448;-68
2021/05/19 01:41:46;;;;;;;1.63;1.40;;;10.60;99.90;;;;;;5035066;28;20486;-68
2021/05/19 01:44:18;;;;;;;1.47;1.37;;;10.60;99.90;;;;;;5014777;28;20441;-68
2021/05/19 01:47:04;;;;;;;2.30;1.30;;;10.70;99.90;;;;;;5053459;28;20480;-68
2021/05/19 01:49:32;;;;;;;1.63;1.50;;;10.60;99.90;;;;;;5014742;28;20499;-68
2021/05/19 01:51:59;;;;;;;1.10;1.07;;;10.60;99.90;;;;;;5064486;28;20414;-68
2021/05/19 01:54:27;;;;;;;1.53;1.43;;;10.60;99.90;;;;;;5030897;28;20461;-68
2021/05/19 01:56:53;;;;;;;1.80;1.70;;;10.50;99.90;;;;;;5022986;28;21294;-68
2021/05/19 01:59:20;;;;;;;2.20;1.40;;;10.50;99.90;;;;;;5061812;28;20437;-68
2021/05/19 02:01:46;;;;;;;1.77;1.67;;;10.50;99.90;;;;;;5051312;28;20488;-68
2021/05/19 02:04:15;;;;;;;1.47;1.37;;;10.50;99.90;;;;;;5032103;28;20433;-68
2021/05/19 02:06:48;;;;;;;1.90;1.80;;;10.40;99.90;;;;;;5031448;28;20466;-68
2021/05/19 02:09:18;;;;;;;1.70;1.60;;;10.40;99.90;;;;;;5030959;28;20410;-68
2021/05/19 02:11:45;;;;;;;1.60;1.50;;;10.40;99.90;;;;;;5046244;28;20472;-68
2021/05/19 02:14:12;;;;;;;4.07;1.70;;;10.40;99.90;;;;;;5041335;28;20486;-68
2021/05/19 02:16:38;;;;;;;2.20;1.60;;;10.50;99.90;;;;;;5029514;28;20960;-68
2021/05/19 02:19:07;;;;;;;1.67;1.50;;;10.40;99.90;;;;;;5040326;28;20442;-68
2021/05/19 02:21:33;;;;;;;2.03;1.50;;;10.40;99.90;;;;;;5063988;28;20260;-68
2021/05/19 02:24:09;;;;;;;2.73;1.67;;;10.30;99.90;;;;;;5039603;28;20421;-68
2021/05/19 02:26:35;;;;;;;1.43;1.33;;;10.30;99.90;;;;;;5048280;28;20462;-68
2021/05/19 02:29:01;;;;;;;4.33;1.70;;;10.30;99.90;;;;;;5029885;28;20414;-68
2021/05/19 02:31:33;;;;;;;1.47;1.37;;;10.30;99.90;;;;;;5047369;28;20465;-68
2021/05/19 02:33:59;;;;;;;1.50;1.40;;;10.30;99.90;;;;;;5052037;28;20421;-68
2021/05/19 02:36:26;;;;;;;1.53;1.43;;;10.30;99.90;;;;;;5045355;28;20434;-68
2021/05/19 02:38:53;;;;;;;1.67;1.47;;;10.30;99.90;;;;;;5035078;28;20488;-68
2021/05/19 02:41:20;;;;;;;1.73;1.63;;;10.30;99.90;;;;;;5053160;28;20436;-68
2021/05/19 02:43:46;;;;;;;1.83;1.73;;;10.30;99.90;;;;;;5032994;28;20456;-68
2021/05/19 02:46:12;;;;;;;1.50;1.40;;;10.20;99.90;;;;;;5038506;28;20489;-68
2021/05/19 02:48:39;;;;;;;1.70;1.60;;;10.20;99.90;;;;;;5037089;28;20194;-68
2021/05/19 02:51:05;;;;;;;1.40;1.30;;;10.20;99.90;;;;;;5046127;28;20460;-68
2021/05/19 02:53:31;;;;;;;1.77;1.67;;;10.20;99.90;;;;;;5046363;28;20792;-68
2021/05/19 02:55:56;;;;;;;1.50;1.40;;;10.20;99.90;;;;;;5025860;28;20480;-68
2021/05/19 02:58:22;;;;;;;1.20;1.20;;;10.10;99.90;;;;;;5076140;28;20722;-68
2021/05/19 03:00:48;;;;;;;1.80;1.63;;;10.10;99.90;;;;;;5046349;28;20296;-68
2021/05/19 03:03:14;;;;;;;2.00;1.90;;;10.10;99.90;;;;;;5046469;28;20471;-68
2021/05/19 03:05:41;;;;;;;1.70;1.60;;;10.10;99.90;;;;;;5029543;28;20243;-68
2021/05/19 03:08:06;;;;;;;2.17;1.60;;;10.10;99.90;;;;;;5029202;28;20936;-68
2021/05/19 03:10:34;;;;;;;1.50;1.40;;;10.10;99.90;;;;;;5027011;28;20457;-68
2021/05/19 03:13:01;;;;;;;1.63;1.53;;;10.10;99.90;;;;;;5055907;28;20283;-68
2021/05/19 03:15:27;;;;;;;1.43;1.33;;;10.10;99.90;;;;;;5044067;28;20449;-68
2021/05/19 03:17:53;;;;;;;1.67;1.57;;;10.20;99.90;;;;;;5012675;28;20437;-68
2021/05/19 03:20:19;;;;;;;1.70;1.60;;;10.20;99.90;;;;;;5044311;28;20793;-68
2021/05/19 03:22:45;;;;;;;1.83;1.70;;;10.10;99.90;;;;;;5045746;28;20480;-68
2021/05/19 03:25:11;;;;;;;1.90;1.80;;;10.10;99.90;;;;;;5028995;28;20231;-68
2021/05/19 03:27:37;;;;;;;2.07;1.60;;;10.10;99.90;;;;;;5004442;28;20219;-68
2021/05/19 03:30:07;;;;;;;1.50;1.40;;;10.10;99.90;;;;;;5018653;28;20494;-68
2021/05/19 03:32:33;;;;;;;2.20;1.60;;;10.20;99.90;;;;;;5057274;28;20205;-68
2021/05/19 03:34:59;;;;;;;1.47;1.37;;;10.20;99.90;;;;;;5049448;28;20454;-68
2021/05/19 03:37:24;;;;;;;2.27;2.07;;;10.20;99.90;;;;;;5029724;28;20207;-68
2021/05/19 03:39:50;;;;;;;1.90;1.80;;;10.20;99.90;;;;;;5045401;28;20199;-68
2021/05/19 03:42:16;;;;;;;1.43;1.30;;;10.20;99.90;;;;;;5053994;28;20524;-68
2021/05/19 03:44:42;;;;;;;1.20;1.10;;;10.20;99.90;;;;;;5029022;28;20168;-68
2021/05/19 03:47:08;;;;;;;1.70;1.60;;;10.20;99.90;;;;;;5045515;28;20203;-68
2021/05/19 03:49:37;;;;;;;1.40;0.97;;;10.20;99.90;;;;;;5043936;28;20203;-68
2021/05/19 03:52:04;;;;;;;1.37;1.30;;;10.30;99.90;;;;;;5061082;28;20456;-68
2021/05/19 03:54:34;;;;;;;1.67;1.37;;;10.30;99.90;;;;;;5044972;28;20433;-68
2021/05/19 03:57:04;;;;;;;1.70;1.60;;;10.30;99.90;;;;;;5028198;28;20498;-68
2021/05/19 03:59:31;;;;;;;1.40;1.30;;;10.20;99.90;;;;;;5032106;28;20472;-68
2021/05/19 04:01:56;;;;;;;1.73;1.63;;;10.30;99.90;;;;;;5012705;28;20988;-68
2021/05/19 04:04:22;;;;;;;1.37;1.27;;;10.20;99.90;;;;;;5028471;28;20433;-68
2021/05/19 04:06:48;;;;;;;1.70;1.50;;;10.20;99.90;;;;;;5028102;28;20653;-68
2021/05/19 04:09:14;;;;;;;1.90;1.50;;;10.20;99.90;;;;;;5011886;28;20675;-68
2021/05/19 04:11:40;;;;;;;2.07;1.90;;;10.20;99.90;;;;;;5012368;28;20187;-68
2021/05/19 04:14:06;;;;;;;2.10;1.50;;;10.20;99.90;;;;;;5053865;28;20187;-68
2021/05/19 04:16:32;;;;;;;1.83;1.70;;;10.10;99.90;;;;;;5047179;28;20426;-68
2021/05/19 04:18:57;;;;;;;2.13;1.73;;;10.10;99.90;;;;;;5024513;28;20218;-68
2021/05/19 04:21:23;;;;;;;1.60;1.50;;;10.10;99.90;;;;;;5049405;28;20211;-68
2021/05/19 04:23:49;;;;;;;1.70;1.60;;;10.00;99.90;;;;;;5025706;28;20709;-68
2021/05/19 04:26:15;;;;;;;2.43;2.23;;;10.00;99.90;;;;;;5025854;28;20302;-68
2021/05/19 04:28:41;;;;;;;2.20;2.00;;;9.90;99.90;;;;;;5044337;28;20212;-68
2021/05/19 04:31:07;;;;;;;1.73;1.63;;;10.00;99.90;;;;;;5040121;28;20872;-68
2021/05/19 04:33:33;;;;;;;2.40;1.80;;;9.90;99.90;;;;;;5065856;28;20760;-68
2021/05/19 04:35:59;;;;;;;1.67;1.57;;;9.90;99.90;;;;;;5051998;28;20535;-68
2021/05/19 04:38:25;;;;;;;1.80;1.70;;;10.00;99.90;;;;;;5020314;28;20431;-68
2021/05/19 04:40:51;;;;;;;5.70;1.87;;;10.00;99.90;;;;;;5061852;28;20211;-68
2021/05/19 04:43:18;;;;;;;2.77;2.03;;;10.00;99.90;;;;;;5065425;28;20429;-68
2021/05/19 04:45:44;;;;;;;3.63;2.33;;;10.00;99.90;;;;;;5065078;28;20476;-67
2021/05/19 04:48:10;;;;;;;1.90;1.80;;;10.00;99.90;;;;;;5047343;28;20968;-68
2021/05/19 04:50:37;;;;;;;2.23;2.13;;;10.00;99.90;;;;;;5044798;28;20453;-69
2021/05/19 04:53:03;;;;;;;2.37;2.10;;;10.00;99.90;;;;;;5046428;28;20450;-68
2021/05/19 04:55:30;;;;;;;1.97;1.73;;;10.00;99.90;;;;;;5046566;28;20433;-68
2021/05/19 04:57:56;;;;;;;5.67;2.87;;;10.00;99.90;;;;;;5064914;28;20451;-69
2021/05/19 05:00:22;;;;;;;3.30;2.30;;;10.00;99.90;;;;;;5080871;28;20515;-68
2021/05/19 05:02:47;;;;;;;2.90;2.67;;;10.00;99.90;;;;;;5017846;28;20437;-68
2021/05/19 05:05:13;;;;;;;3.37;2.90;;;10.00;99.90;;;;;;5029607;28;20306;-68
2021/05/19 05:07:39;;;;;;;3.10;2.80;;;10.00;99.90;;;;;;5028834;28;20184;-69
2021/05/19 05:10:06;;;;;;;3.30;2.83;;;10.00;99.90;;;;;;5011775;28;20239;-68
2021/05/19 05:12:32;;;;;;;3.40;2.53;;;10.00;99.90;;;;;;5034604;28;20179;-68
2021/05/19 05:14:58;;;;;;;3.30;2.90;;;10.00;99.90;;;;;;5032534;28;20421;-68
2021/05/19 05:17:24;;;;;;;2.93;2.30;;;9.90;99.90;;;;;;5030986;28;20951;-68
2021/05/19 05:19:49;;;;;;;2.63;2.27;;;10.00;99.90;;;;;;5052908;28;20196;-68
2021/05/19 05:22:15;;;;;;;2.43;2.13;;;10.00;99.90;;;;;;5032826;28;20187;-68
2021/05/19 05:24:41;;;;;;;5.10;2.03;;;10.00;99.90;;;;;;5014920;28;20183;-68
2021/05/19 05:27:07;;;;;;;2.87;2.57;;;10.00;99.90;;;;;;5005098;28;20216;-68
2021/05/19 05:29:32;;;;;;;2.87;2.10;;;10.10;99.90;;;;;;5020742;28;20203;-68
2021/05/19 05:31:58;;;;;;;2.63;2.43;;;10.10;99.90;;;;;;5064499;28;20517;-68
2021/05/19 05:34:24;;;;;;;3.00;2.30;;;10.10;99.90;;;;;;5029749;28;20264;-68
2021/05/19 05:36:50;;;;;;;2.60;2.30;;;10.10;99.90;;;;;;5036738;28;20433;-68
2021/05/19 05:39:16;;;;;;;1.87;1.70;;;10.10;99.90;;;;;;5029825;28;20186;-68
2021/05/19 05:41:41;;;;;;;2.40;2.20;;;10.10;99.90;;;;;;5043783;28;20719;-68
2021/05/19 05:44:09;;;;;;;3.03;2.43;;;10.10;99.90;;;;;;5044544;28;20212;-69
2021/05/19 05:46:35;;;;;;;2.07;1.87;;;10.20;99.90;;;;;;5037450;28;20207;-68
2021/05/19 05:49:00;;;;;;;2.20;2.00;;;10.20;99.90;;;;;;5030970;28;21001;-68
2021/05/19 05:51:26;;;;;;;2.33;2.13;;;10.20;99.90;;;;;;5029883;28;20686;-68
2021/05/19 05:53:53;;;;;;;2.63;2.43;;;10.30;99.90;;;;;;5031454;28;20256;-68
2021/05/19 05:56:20;;;;;;;2.20;2.00;;;10.30;99.90;;;;;;5031591;28;20179;-68
2021/05/19 05:58:46;;;;;;;2.60;2.27;;;10.30;99.90;;;;;;5030410;28;20874;-68
2021/05/19 06:01:11;;;;;;;2.40;2.20;;;10.20;99.90;;;;;;5071776;28;20532;-69
2021/05/19 06:03:37;;;;;;;2.97;2.60;;;10.20;99.90;;;;;;5067997;28;20207;-68
2021/05/19 06:06:03;;;;;;;3.50;2.83;;;10.30;99.90;;;;;;5085820;28;20686;-68
2021/05/19 06:08:29;;;;;;;5.20;3.10;;;10.20;99.90;;;;;;5050802;28;20449;-68
2021/05/19 06:10:55;;;;;;;3.30;2.70;;;10.20;99.90;;;;;;5033713;28;20195;-69
2021/05/19 06:13:21;;;;;;;4.03;2.50;;;10.20;99.90;;;;;;5039185;28;20543;-68
2021/05/19 06:15:47;;;;;;;3.47;2.93;;;10.20;99.90;;;;;;5034899;28;20429;-68
2021/05/19 06:18:13;;;;;;;2.70;2.50;;;10.20;99.90;;;;;;5028899;28;20833;-68
2021/05/19 06:20:40;;;;;;;2.77;2.47;;;10.30;99.90;;;;;;5040038;28;20477;-68
2021/05/19 06:23:06;;;;;;;3.03;2.80;;;10.30;99.90;;;;;;5047680;28;20182;-68
2021/05/19 06:25:32;;;;;;;3.37;2.60;;;10.30;99.90;;;;;;5047850;28;20500;-68
2021/05/19 06:27:58;;;;;;;3.23;2.93;;;10.40;99.90;;;;;;5032200;28;20472;-68
2021/05/19 06:30:23;;;;;;;3.63;2.73;;;10.40;99.90;;;;;;5040771;28;20203;-68
2021/05/19 06:32:49;;;;;;;3.33;2.70;;;10.50;99.90;;;;;;5030929;28;20184;-68
2021/05/19 06:35:15;;;;;;;3.10;2.80;;;10.50;99.90;;;;;;5045219;28;20195;-68
2021/05/19 06:37:41;;;;;;;4.00;3.60;;;10.60;99.90;;;;;;5034201;28;20662;-68
2021/05/19 06:40:08;;;;;;;3.90;3.10;;;10.60;99.90;;;;;;5026927;28;20481;-69
2021/05/19 06:42:35;;;;;;;2.77;2.57;;;10.60;99.90;;;;;;5045821;28;20205;-68
2021/05/19 06:45:01;;;;;;;2.97;2.63;;;10.60;99.90;;;;;;5046030;28;20410;-68
2021/05/19 06:47:31;;;;;;;4.40;3.40;;;10.70;99.90;;;;;;5048473;28;20450;-69
2021/05/19 06:49:58;;;;;;;4.83;3.33;;;10.70;99.90;;;;;;5041069;28;20504;-69
2021/05/19 06:52:23;;;;;;;3.17;2.90;;;10.80;99.90;;;;;;5030644;28;20887;-68
2021/05/19 06:54:49;;;;;;;3.50;2.97;;;10.80;99.90;;;;;;5029988;28;20433;-69
2021/05/19 06:57:15;;;;;;;2.83;2.63;;;10.90;99.90;;;;;;5029701;28;20698;-69
2021/05/19 06:59:41;;;;;;;3.47;2.73;;;10.90;99.90;;;;;;5017053;28;20220;-69
2021/05/19 07:02:06;;;;;;;3.13;2.90;;;10.90;99.90;;;;;;5029665;28;20188;-69
2021/05/19 07:04:32;;;;;;;3.60;3.07;;;11.00;99.90;;;;;;5013449;28;20274;-68
2021/05/19 07:06:58;;;;;;;2.83;2.63;;;10.90;99.90;;;;;;5029399;28;20238;-69
2021/05/19 07:09:25;;;;;;;4.17;3.40;;;11.00;99.90;;;;;;5054227;28;20274;-69
2021/05/19 07:11:52;;;;;;;3.77;3.30;;;11.00;99.90;;;;;;5029453;28;20179;-69
2021/05/19 07:14:18;;;;;;;3.70;3.27;;;11.00;99.90;;;;;;5036536;28;20418;-69
2021/05/19 07:16:51;;;;;;;3.73;3.10;;;11.10;99.90;;;;;;5064642;28;20429;-69
2021/05/19 07:19:17;;;;;;;4.07;3.40;;;11.10;99.90;;;;;;5033675;28;20838;-69
2021/05/19 07:21:43;;;;;;;4.03;3.20;;;11.10;99.90;;;;;;5039549;28;20442;-68
2021/05/19 07:24:11;;;;;;;3.20;2.90;;;11.10;99.90;;;;;;5064491;28;20824;-68
2021/05/19 07:26:39;;;;;;;3.10;2.50;;;11.20;99.90;;;;;;5044663;28;21065;-69
2021/05/19 07:29:05;;;;;;;4.20;3.03;;;11.20;99.90;;;;;;5064696;28;20433;-69
2021/05/19 07:31:31;;;;;;;4.17;3.10;;;11.30;99.90;;;;;;5031463;28;20457;-69
2021/05/19 07:33:57;;;;;;;6.90;2.40;;;11.30;99.90;;;;;;5058623;28;20266;-69
2021/05/19 07:36:23;;;;;;;3.27;2.97;;;11.40;99.90;;;;;;5064295;28;20552;-69
2021/05/19 07:38:48;;;;;;;3.27;2.60;;;11.50;99.90;;;;;;5062692;28;20192;-69
2021/05/19 07:41:14;;;;;;;3.57;3.27;;;11.50;99.90;;;;;;5032938;28;20207;-68
2021/05/19 07:43:40;;;;;;;4.30;3.10;;;11.60;99.90;;;;;;5046513;28;20225;-69
2021/05/19 07:46:06;;;;;;;3.30;3.00;;;11.60;99.90;;;;;;5045933;28;20260;-68
2021/05/19 07:48:31;;;;;;;4.83;3.00;;;11.60;99.90;;;;;;5079229;28;20176;-69
2021/05/19 07:50:57;;;;;;;3.50;2.50;;;11.70;99.90;;;;;;5041466;28;20939;-68
2021/05/19 07:53:23;;;;;;;4.07;2.93;;;11.70;99.90;;;;;;5033658;28;20655;-69
2021/05/19 07:58:20;;;;;;;6.00;3.47;;;11.80;99.90;;;;;;5045091;28;20195;-68
2021/05/19 08:01:01;;;;;;;2.87;2.60;;;11.90;99.90;;;;;;5008501;28;20215;-69
2021/05/19 08:03:30;;;;;;;3.70;2.70;;;11.90;99.90;;;;;;5068544;28;20420;-69
2021/05/19 08:05:56;;;;;;;3.83;2.60;;;12.00;99.90;;;;;;5044962;28;20500;-69
2021/05/19 08:08:22;;;;;;;3.37;3.07;;;12.10;99.90;;;;;;5012853;28;20564;-69
2021/05/19 08:10:48;;;;;;;3.60;3.30;;;12.20;99.90;;;;;;5006614;28;20204;-69
2021/05/19 08:13:13;;;;;;;4.47;2.77;;;12.20;99.90;;;;;;5038684;28;20441;-69
2021/05/19 08:15:39;;;;;;;3.47;3.17;;;12.30;99.90;;;;;;5052071;28;20245;-69
2021/05/19 08:18:09;;;;;;;5.23;3.10;;;12.40;99.90;;;;;;5037211;28;20187;-69
2021/05/19 08:20:35;;;;;;;2.97;2.70;;;12.50;99.90;;;;;;5024723;28;20584;-68
2021/05/19 08:23:00;;;;;;;4.97;3.57;;;12.60;99.90;;;;;;5050935;28;20434;-69
2021/05/19 08:25:26;;;;;;;3.27;2.93;;;12.80;99.90;;;;;;5043058;28;20207;-69
2021/05/19 08:27:53;;;;;;;2.97;2.70;;;12.90;99.90;;;;;;5068933;28;20179;-69
2021/05/19 08:30:18;;;;;;;3.43;3.13;;;13.00;99.90;;;;;;5028671;28;20485;-69
2021/05/19 08:32:44;;;;;;;6.47;3.23;;;13.10;99.90;;;;;;5072330;28;20494;-69
2021/05/19 08:35:11;;;;;;;2.60;2.40;;;13.20;99.90;;;;;;5036212;28;20183;-69
2021/05/19 08:37:37;;;;;;;4.67;2.80;;;13.30;99.90;;;;;;5032373;28;20264;-69
2021/05/19 08:40:04;;;;;;;2.40;2.20;;;13.40;99.90;;;;;;5055762;28;20449;-69
2021/05/19 08:42:33;;;;;;;3.00;2.07;;;13.50;99.90;;;;;;5051319;28;20414;-69
2021/05/19 08:44:58;;;;;;;1.90;1.70;;;13.50;99.90;;;;;;5034778;28;20429;-69
2021/05/19 08:47:25;;;;;;;3.30;1.90;;;13.60;99.90;;;;;;5035579;28;20851;-69
2021/05/19 08:49:51;;;;;;;2.30;2.00;;;13.70;99.90;;;;;;5035537;28;20203;-69
2021/05/19 08:52:18;;;;;;;2.97;2.20;;;13.80;99.90;;;;;;5051624;28;20421;-69
2021/05/19 08:54:44;;;;;;;1.77;1.67;;;14.00;99.90;;;;;;5034683;28;20560;-69
2021/05/19 08:57:11;;;;;;;2.97;2.13;;;14.00;99.90;;;;;;5025357;28;20579;-68
2021/05/19 08:59:37;;;;;;;2.40;2.20;;;14.10;99.90;;;;;;5034283;28;20203;-69
2021/05/19 09:02:17;;;;;;;1.73;1.63;;;14.30;99.90;;;;;;5047926;28;20485;-69
2021/05/19 09:04:44;;;;;;;1.77;1.67;;;14.40;99.90;;;;;;5047948;28;20441;-69
2021/05/19 09:07:18;;;;;;;12.70;2.63;;;14.40;99.90;;;;;;5048214;28;20462;-69
2021/05/19 09:09:45;;;;;;;2.17;2.03;;;14.50;99.90;;;;;;5050538;28;20464;-67
2021/05/19 09:12:13;;;;;;;1.97;1.70;;;14.60;99.90;;;;;;5042784;28;20459;-66
2021/05/19 09:14:45;;;;;;;4.03;1.90;;;14.60;99.90;;;;;;5052029;28;20444;-66
2021/05/19 09:17:22;;;;;;;2.60;1.70;;;14.60;99.90;;;;;;5049633;28;20423;-66
2021/05/19 09:19:49;;;;;;;1.40;1.20;;;14.60;99.90;;;;;;5068596;28;20453;-67
2021/05/19 09:22:22;;;;;;;1.20;1.10;;;14.60;99.90;;;;;;5035967;28;20441;-66
2021/05/19 09:24:49;;;;;;;1.70;1.30;;;14.60;99.90;;;;;;5040922;28;20426;-66
2021/05/19 09:27:16;;;;;;;1.30;1.23;;;14.50;99.90;;;;;;5032615;28;20456;-67
2021/05/19 09:29:49;;;;;;;1.20;1.10;;;14.50;99.90;;;;;;5018374;28;20470;-67
2021/05/19 09:32:16;;;;;;;1.97;1.20;;;14.50;99.90;;;;;;5028027;28;20802;-66
2021/05/19 09:34:47;;;;;;;1.47;1.17;;;14.50;99.90;;;;;;5057172;28;20414;-67
2021/05/19 09:37:22;;;;;;;2.30;1.37;;;14.50;99.90;;;;;;5031637;28;20440;-67
2021/05/19 09:40:01;;;;;;;1.73;1.63;;;14.50;99.90;;;;;;5046784;28;20465;-67
2021/05/19 09:42:47;;;;;;;2.70;1.50;;;14.50;99.90;;;;;;5032852;28;20532;-66
2021/05/19 09:45:27;;;;;;;1.40;1.30;;;14.50;99.90;;;;;;5055602;28;20428;-66
2021/05/19 09:47:55;;;;;;;2.23;1.80;;;14.60;99.90;;;;;;5031049;28;20402;-67
2021/05/19 09:50:41;;;;;;;4.07;1.77;;;14.70;99.90;;;;;;5047432;28;20861;-66
2021/05/19 09:53:14;;;;;;;1.93;1.80;;;14.70;99.90;;;;;;5031646;28;20429;-66
2021/05/19 09:56:00;;;;;;;2.10;1.27;;;14.80;99.90;;;;;;5015030;28;20429;-66
2021/05/19 09:58:36;;;;;;;1.53;1.43;;;14.80;99.90;;;;;;5005739;28;20784;-66
2021/05/19 10:01:05;;;;;;;3.03;1.20;;;14.80;99.90;;;;;;5054543;28;21027;-69
2021/05/19 10:03:35;;;;;;;1.30;1.07;;;14.80;99.90;;;;;;5047959;28;20421;-69
2021/05/19 10:06:25;;;;;;;0.93;0.93;;;14.90;99.90;;;;;;5018905;28;20482;-69
2021/05/19 10:08:51;;;;;;;0.97;0.80;;;15.00;99.90;;;;;;5058297;28;20429;-69
2021/05/19 10:11:17;;;;;;;0.70;0.70;;;15.10;99.90;;;;;;5046395;28;20437;-69
2021/05/19 10:13:44;;;;;;;1.10;0.90;;;15.20;99.90;;;;;;5063004;28;20483;-69
2021/05/19 10:16:16;;;;;;;0.93;0.90;;;15.20;99.90;;;;;;5052677;28;20503;-69
2021/05/19 10:18:54;;;;;;;1.03;0.90;;;15.30;99.90;;;;;;5025653;28;20492;-69
2021/05/19 10:21:21;;;;;;;0.70;0.70;;;15.40;99.90;;;;;;5043831;28;20457;-69
2021/05/19 10:24:09;;;;;;;0.70;0.60;;;15.30;99.90;;;;;;5035120;28;20472;-69
2021/05/19 10:26:58;;;;;;;0.73;0.73;;;15.40;99.90;;;;;;5044593;28;20455;-69
2021/05/19 10:29:49;;;;;;;1.00;0.90;;;15.30;99.90;;;;;;5048716;28;20427;-69
2021/05/19 10:32:21;;;;;;;1.57;0.93;;;15.30;99.90;;;;;;5062990;28;20457;-69
2021/05/19 10:34:54;;;;;;;1.77;1.07;;;15.50;99.90;;;;;;5049845;28;20812;-69
2021/05/19 10:37:29;;;;;;;0.97;0.90;;;15.60;99.90;;;;;;5049557;28;20420;-69
2021/05/19 10:40:06;;;;;;;0.60;0.60;;;15.70;99.90;;;;;;5053232;28;20510;-69
2021/05/19 10:42:37;;;;;;;0.80;0.80;;;15.80;99.90;;;;;;5046137;28;20425;-69
2021/05/19 10:45:12;;;;;;;1.63;1.00;;;15.90;99.90;;;;;;5063797;28;20512;-66
2021/05/19 10:47:37;;;;;;;0.90;0.83;;;15.90;99.90;;;;;;5046033;28;20457;-67
2021/05/19 10:50:12;;;;;;;3.30;0.90;;;16.10;99.90;;;;;;5012625;28;21087;-67
2021/05/19 11:01:51;;;;;;;1.07;1.07;;;16.20;99.90;;;;;;5049704;28;20543;-66
2021/05/19 11:04:27;;;;;;;1.53;0.67;;;16.40;99.90;;;;;;5044525;28;20441;-66
2021/05/19 11:07:04;;;;;;;0.90;0.90;;;16.70;99.90;;;;;;5012875;28;20504;-67
2021/05/19 11:09:40;;;;;;;3.03;0.80;;;16.80;99.90;;;;;;5028515;28;21007;-66
2021/05/19 11:12:23;;;;;;;0.73;0.70;;;16.90;99.90;;;;;;5033990;28;20548;-67
2021/05/19 11:14:55;;;;;;;3.23;0.97;;;17.10;99.90;;;;;;5031812;28;21052;-68
2021/05/19 11:17:51;;;;;;;1.00;0.87;;;17.10;99.90;;;;;;5053302;28;20478;-69
2021/05/19 11:20:14;;;;;;;1.03;0.93;;;17.00;99.90;;;;;;5031677;28;20460;-69
2021/05/19 11:22:40;;;;;;;1.03;0.93;;;17.00;99.90;;;;;;5045002;28;20454;-70
2021/05/19 11:25:06;;;;;;;1.30;1.20;;;17.00;99.90;;;;;;5063592;28;20172;-69
2021/05/19 11:27:34;;;;;;;1.00;0.80;;;17.10;99.90;;;;;;5065760;28;20480;-69
2021/05/19 11:30:04;;;;;;;1.80;0.87;;;17.00;99.90;;;;;;5045166;28;20433;-69
2021/05/19 11:32:34;;;;;;;0.93;0.80;;;16.90;99.90;;;;;;5045145;28;20434;-69
2021/05/19 11:35:20;;;;;;;2.20;0.90;;;16.80;99.90;;;;;;5047898;28;20429;-69
2021/05/19 11:38:04;;;;;;;1.70;1.17;;;16.70;99.90;;;;;;5040336;28;20417;-69
2021/05/19 11:40:48;;;;;;;3.53;0.97;;;16.80;99.90;;;;;;5072483;28;20437;-69
2021/05/19 11:43:15;;;;;;;1.17;0.70;;;16.80;99.90;;;;;;5045378;28;20516;-69
2021/05/19 11:45:43;;;;;;;0.77;0.77;;;16.90;99.90;;;;;;5044982;28;20469;-69
2021/05/19 11:48:26;;;;;;;5.67;1.10;;;16.90;99.90;;;;;;5061706;28;20483;-69
2021/05/19 11:50:53;;;;;;;1.00;0.90;;;17.00;99.90;;;;;;5064569;28;20465;-66
2021/05/19 11:53:19;;;;;;;1.33;0.97;;;17.00;99.90;;;;;;5037390;28;20478;-67
2021/05/19 11:55:46;;;;;;;1.13;1.03;;;16.90;99.90;;;;;;5062740;28;20418;-66
2021/05/19 11:58:15;;;;;;;2.10;1.30;;;16.90;99.90;;;;;;5045434;28;20198;-67
2021/05/19 12:00:50;;;;;;;1.40;0.90;;;17.00;99.90;;;;;;5049183;28;20457;-66
2021/05/19 12:03:21;;;;;;;1.33;0.83;;;17.10;99.90;;;;;;5063204;28;20440;-67
2021/05/19 12:06:05;;;;;;;1.03;0.87;;;17.30;99.90;;;;;;5062229;28;20552;-66
2021/05/19 12:08:33;;;;;;;3.37;0.70;;;17.40;99.90;;;;;;5028162;28;20445;-67
2021/05/19 12:11:05;;;;;;;1.47;0.70;;;17.60;99.90;;;;;;5061903;28;20461;-66
2021/05/19 12:13:37;;;;;;;2.30;0.90;;;17.70;99.90;;;;;;5044126;28;20491;-66
2021/05/19 12:16:16;;;;;;;0.70;0.70;;;17.80;99.90;;;;;;5036379;28;20509;-67
2021/05/19 12:19:10;;;;;;;1.00;0.90;;;18.00;99.90;;;;;;5044765;28;20421;-68
2021/05/19 12:21:44;;;;;;;0.70;0.67;;;18.10;99.90;;;;;;5039849;28;20458;-69
2021/05/19 12:24:12;;;;;;;1.40;0.90;;;18.20;99.90;;;;;;5041373;28;20476;-69
2021/05/19 12:26:39;;;;;;;3.00;1.47;;;18.40;99.90;;;;;;5039410;28;21105;-69
2021/05/19 12:29:28;;;;;;;0.83;0.83;;;18.40;99.90;;;;;;5043346;28;20980;-69
2021/05/19 12:32:23;;;;;;;0.87;0.87;;;18.50;99.90;;;;;;5031930;28;20903;-69
2021/05/19 12:35:08;;;;;;;1.37;1.00;;;18.40;99.90;;;;;;5030265;28;20556;-69
2021/05/19 12:37:42;;;;;;;1.07;1.07;;;18.10;99.90;;;;;;5018721;28;20441;-69
2021/05/19 12:40:13;;;;;;;4.50;0.93;;;17.90;99.90;;;;;;5037656;28;20448;-69
2021/05/19 12:42:50;;;;;;;5.40;1.23;;;17.80;99.90;;;;;;5028909;28;20441;-69
2021/05/19 12:45:25;;;;;;;0.80;0.80;;;17.70;99.90;;;;;;5027835;28;20453;-69
2021/05/19 12:48:04;;;;;;;6.93;1.33;;;17.70;99.90;;;;;;5019551;28;20840;-69
2021/05/19 12:50:46;;;;;;;0.90;0.90;;;17.70;99.90;;;;;;5056775;28;20540;-69
2021/05/19 12:53:38;;;;;;;0.93;0.80;;;17.60;99.90;;;;;;5040058;28;20448;-70
2021/05/19 12:56:16;;;;;;;0.70;0.70;;;17.30;99.90;;;;;;5029471;28;20967;-69
2021/05/19 12:58:48;;;;;;;0.97;0.70;;;17.10;99.90;;;;;;5044993;28;20421;-69
2021/05/19 13:01:14;;;;;;;0.77;0.77;;;16.80;99.90;;;;;;5047985;28;20456;-69
2021/05/19 13:03:40;;;;;;;0.93;0.80;;;16.60;99.90;;;;;;5064791;28;21248;-69
2021/05/19 13:06:07;;;;;;;0.83;0.83;;;16.60;99.90;;;;;;5065343;28;20595;-69
2021/05/19 13:08:33;;;;;;;2.17;1.10;;;16.50;99.90;;;;;;5048553;28;20479;-69